createdAt,value
2022-08-24T00:00:37.854Z,662.72
2022-08-24T00:03:05.147Z,587.47
2022-08-24T00:05:32.553Z,698.92
2022-08-24T00:07:59.734Z,687.15
2022-08-24T00:10:26.954Z,719.72
2022-08-24T00:12:54.165Z,1054.65
2022-08-24T00:15:21.566Z,901.00
2022-08-24T00:17:48.717Z,1152.05
2022-08-24T00:20:16.581Z,1945.93
2022-08-24T00:22:43.935Z,1972.80
2022-08-24T00:25:12.708Z,1825.50
2022-08-24T00:27:41.072Z,1664.75
2022-08-24T00:30:12.177Z,1999.90
2022-08-24T00:32:39.450Z,1794.95
2022-08-24T00:35:07.850Z,1584.32
2022-08-24T00:37:36.511Z,1778.25
2022-08-24T00:40:12.087Z,1999.90
2022-08-24T00:42:40.558Z,1999.90
2022-08-24T00:45:11.015Z,1999.90
2022-08-24T00:47:47.697Z,1999.90
2022-08-24T00:50:25.147Z,1452.55
2022-08-24T00:53:02.768Z,1921.60
2022-08-24T00:55:34.915Z,1774.40
2022-08-24T00:58:07.835Z,1830.90
2022-08-24T01:00:46.519Z,1999.90
2022-08-24T01:03:16.419Z,1975.25
2022-08-24T01:05:44.160Z,1999.90
2022-08-24T01:08:13.482Z,1896.22
2022-08-24T01:10:46.357Z,1776.78
2022-08-24T01:13:14.675Z,1999.90
2022-08-24T01:15:47.628Z,1999.90
2022-08-24T01:18:40.438Z,1799.95
2022-08-24T01:21:07.626Z,1961.15
2022-08-24T01:23:54.695Z,1999.90
2022-08-24T01:26:49.423Z,1999.90
2022-08-24T01:29:23.705Z,1999.90
2022-08-24T01:31:52.264Z,1818.22
2022-08-24T01:34:21.127Z,1834.47
2022-08-24T01:36:55.968Z,1902.30
2022-08-24T01:39:33.861Z,1912.00
2022-08-24T01:42:01.926Z,1855.43
2022-08-24T01:44:32.983Z,1798.03
2022-08-24T01:47:01.933Z,1773.72
2022-08-24T01:49:41.547Z,1822.25
2022-08-24T01:52:12.411Z,1820.82
2022-08-24T01:54:40.292Z,1829.50
2022-08-24T01:57:11.536Z,1851.00
2022-08-24T01:59:44.292Z,1809.70
2022-08-24T02:02:21.613Z,1877.22
2022-08-24T02:04:48.789Z,1617.57
2022-08-24T02:07:16.331Z,1683.57
2022-08-24T02:09:43.547Z,1772.00
2022-08-24T02:12:11.246Z,1839.00
2022-08-24T02:14:40.922Z,1780.60
2022-08-24T02:17:08.832Z,1455.55
2022-08-24T02:19:36.966Z,1488.38
2022-08-24T02:22:05.968Z,1227.97
2022-08-24T02:24:36.739Z,1059.93
2022-08-24T02:27:05.535Z,939.40
2022-08-24T02:29:34.397Z,1040.05
2022-08-24T02:32:01.658Z,1076.18
2022-08-24T02:34:29.502Z,1354.57
2022-08-24T02:36:56.723Z,1332.60
2022-08-24T02:39:24.010Z,1111.90
2022-08-24T02:41:52.338Z,1548.07
2022-08-24T02:44:20.506Z,657.08
2022-08-24T02:46:48.675Z,526.35
2022-08-24T02:49:19.161Z,652.20
2022-08-24T02:51:47.358Z,728.85
2022-08-24T02:54:19.288Z,783.65
2022-08-24T02:56:48.676Z,957.83
2022-08-24T02:59:19.567Z,1999.90
2022-08-24T03:01:49.834Z,1943.60
2022-08-24T03:04:19.080Z,1999.90
2022-08-24T03:06:47.345Z,1999.90
2022-08-24T03:09:14.725Z,1999.90
2022-08-24T03:11:45.488Z,1496.47
2022-08-24T03:14:14.403Z,1716.00
2022-08-24T03:16:41.945Z,984.60
2022-08-24T03:19:09.343Z,909.92
2022-08-24T03:21:38.475Z,981.83
2022-08-24T03:24:06.128Z,988.35
2022-08-24T03:26:33.716Z,1999.90
2022-08-24T03:29:00.975Z,992.15
2022-08-24T03:31:28.761Z,1311.25
2022-08-24T03:33:56.013Z,961.20
2022-08-24T03:36:23.255Z,1681.95
2022-08-24T03:38:50.503Z,1981.90
2022-08-24T03:41:18.998Z,1868.57
2022-08-24T03:43:46.341Z,1519.88
2022-08-24T03:46:18.564Z,862.78
2022-08-24T03:48:48.958Z,1100.70
2022-08-24T03:51:21.803Z,986.95
2022-08-24T03:53:51.481Z,708.22
2022-08-24T03:56:20.034Z,469.48
2022-08-24T03:58:47.861Z,425.45
2022-08-24T04:01:17.566Z,428.13
2022-08-24T04:03:47.414Z,386.65
2022-08-24T04:06:18.142Z,327.30
2022-08-24T04:08:45.771Z,268.58
2022-08-24T04:11:15.846Z,264.42
2022-08-24T04:13:45.397Z,277.48
2022-08-24T04:16:15.136Z,229.23
2022-08-24T04:18:43.795Z,316.38
2022-08-24T04:21:29.363Z,419.27
2022-08-24T04:23:57.679Z,531.35
2022-08-24T04:26:44.929Z,585.08
2022-08-24T04:29:16.495Z,603.92
2022-08-24T04:31:48.807Z,803.88
2022-08-24T04:34:18.283Z,674.72
2022-08-24T04:36:46.499Z,859.35
2022-08-24T04:39:14.903Z,774.10
2022-08-24T04:42:04.558Z,1083.18
2022-08-24T04:44:37.058Z,1188.30
2022-08-24T04:47:05.432Z,1024.43
2022-08-24T04:49:33.023Z,1996.00
2022-08-24T04:52:00.860Z,1661.45
2022-08-24T04:54:28.582Z,1583.78
2022-08-24T04:57:06.305Z,1748.97
2022-08-24T04:59:34.278Z,1955.85
2022-08-24T05:02:02.110Z,1711.07
2022-08-24T05:04:29.376Z,1452.40
2022-08-24T05:06:58.635Z,1347.63
2022-08-24T05:09:25.827Z,1235.93
2022-08-24T05:11:55.496Z,1289.18
2022-08-24T05:14:28.785Z,1362.28
2022-08-24T05:16:56.685Z,1519.80
2022-08-24T05:19:24.484Z,1999.90
2022-08-24T05:21:51.979Z,1999.90
2022-08-24T05:24:20.090Z,1999.90
2022-08-24T05:26:47.849Z,1999.90
2022-08-24T05:29:18.892Z,1999.90
2022-08-24T05:31:50.551Z,1999.90
2022-08-24T05:34:18.351Z,1999.90
2022-08-24T05:36:46.082Z,1988.20
2022-08-24T05:39:36.355Z,1999.90
2022-08-24T05:42:08.265Z,1999.90
2022-08-24T05:44:39.230Z,1999.90
2022-08-24T05:47:06.537Z,1999.90
2022-08-24T05:49:37.239Z,1999.90
2022-08-24T05:52:06.711Z,1999.90
2022-08-24T05:54:33.891Z,1999.90
2022-08-24T05:57:06.968Z,1999.90
2022-08-24T05:59:43.721Z,1999.90
2022-08-24T06:02:16.528Z,1999.90
2022-08-24T06:04:44.937Z,1999.90
2022-08-24T06:07:13.389Z,1999.90
2022-08-24T06:09:44.731Z,1999.90
2022-08-24T06:12:12.050Z,1999.90
2022-08-24T06:14:44.884Z,1999.90
2022-08-24T06:17:12.559Z,1999.90
2022-08-24T06:19:40.505Z,1999.90
2022-08-24T06:22:08.432Z,1999.90
2022-08-24T06:24:58.500Z,1999.90
2022-08-24T06:27:27.013Z,1999.90
2022-08-24T06:29:58.822Z,902.00
2022-08-24T06:32:49.319Z,945.90
2022-08-24T06:35:28.689Z,1210.03
2022-08-24T06:37:57.424Z,1539.30
2022-08-24T06:40:25.898Z,1999.90
2022-08-24T06:42:54.487Z,1680.28
2022-08-24T06:45:43.819Z,1999.90
2022-08-24T06:48:12.829Z,1999.90
2022-08-24T06:50:40.419Z,1562.47
2022-08-24T06:53:08.315Z,1989.28
2022-08-24T06:55:35.807Z,1839.38
2022-08-24T06:58:03.553Z,1599.70
2022-08-24T07:00:31.043Z,984.40
2022-08-24T07:02:58.502Z,1033.80
2022-08-24T07:05:26.291Z,975.40
2022-08-24T07:08:18.729Z,973.42
2022-08-24T07:10:46.181Z,910.60
2022-08-24T07:13:14.708Z,912.45
2022-08-24T07:15:42.886Z,926.70
2022-08-24T07:18:16.864Z,944.92
2022-08-24T07:20:49.143Z,955.20
2022-08-24T07:23:22.922Z,882.72
2022-08-24T07:26:15.145Z,1999.90
2022-08-24T07:29:01.002Z,753.92
2022-08-24T07:31:35.145Z,1999.90
2022-08-24T07:34:12.075Z,1999.90
2022-08-24T07:36:44.294Z,1999.90
2022-08-24T07:39:12.238Z,1999.90
2022-08-24T07:42:02.411Z,1999.90
2022-08-24T07:44:31.642Z,1999.90
2022-08-24T07:47:07.227Z,1999.90
2022-08-24T07:49:42.934Z,1999.90
2022-08-24T07:52:10.640Z,1999.90
2022-08-24T07:54:38.084Z,1999.90
2022-08-24T07:57:06.580Z,1999.90
2022-08-24T07:59:36.055Z,1999.90
2022-08-24T08:02:05.081Z,1999.90
2022-08-24T08:04:33.142Z,1999.90
2022-08-24T08:07:01.442Z,1999.90
2022-08-24T08:09:31.159Z,1999.90
2022-08-24T08:12:01.974Z,1999.90
2022-08-24T08:14:29.805Z,1999.90
2022-08-24T08:16:57.038Z,1999.90
2022-08-24T08:19:42.323Z,1999.90
2022-08-24T08:26:17.851Z,1999.90
2022-08-24T08:29:53.264Z,1999.90
2022-08-24T08:53:29.836Z,1999.90
2022-08-24T09:33:47.894Z,1999.90
2022-08-24T09:36:35.236Z,1999.90
2022-08-24T09:39:47.041Z,1999.90
2022-08-24T09:42:51.587Z,1999.90
2022-08-24T09:45:37.037Z,1999.90
2022-08-24T09:48:23.028Z,1999.90
2022-08-24T09:51:42.460Z,1999.90
2022-08-24T09:54:48.372Z,1999.90
2022-08-24T09:57:22.300Z,1999.90
2022-08-24T10:00:10.250Z,1999.90
2022-08-24T10:02:48.082Z,1999.90
2022-08-24T10:05:51.285Z,1999.90
2022-08-24T10:08:24.804Z,1999.90
2022-08-24T10:11:14.822Z,1999.90
2022-08-24T10:13:58.734Z,1999.90
2022-08-24T10:16:59.829Z,1999.90
2022-08-24T10:19:27.233Z,1999.90
2022-08-24T10:22:28.265Z,1999.90
2022-08-24T10:25:03.006Z,1999.90
2022-08-24T10:27:46.022Z,1999.90
2022-08-24T10:30:58.293Z,1999.90
2022-08-24T10:33:44.038Z,1999.90
2022-08-24T10:36:30.354Z,1999.90
2022-08-24T10:39:41.106Z,1999.90
2022-08-24T10:42:59.083Z,1999.90
2022-08-24T10:45:48.369Z,1999.90
2022-08-24T10:53:14.118Z,1999.90
2022-08-24T10:55:42.035Z,1999.90
2022-08-24T10:58:29.269Z,1999.90
2022-08-24T11:01:12.196Z,1999.90
2022-08-24T11:04:25.724Z,1999.90
2022-08-24T11:16:07.794Z,1999.90
2022-08-24T11:19:17.481Z,1999.90
2022-08-24T11:22:21.902Z,1999.90
2022-08-24T11:24:53.903Z,1999.90
2022-08-24T11:27:47.577Z,1999.90
2022-08-24T11:44:23.838Z,1999.90
2022-08-24T11:47:03.313Z,1999.90
2022-08-24T11:49:45.433Z,1999.90
2022-08-24T11:52:33.049Z,1999.90
2022-08-24T11:55:24.421Z,1999.90
2022-08-24T11:57:53.901Z,1999.90
2022-08-24T12:00:24.764Z,1999.90
2022-08-24T12:03:03.406Z,1999.90
2022-08-24T12:05:37.215Z,1999.90
2022-08-24T12:08:26.143Z,1999.90
2022-08-24T12:11:15.328Z,1999.90
2022-08-24T12:14:19.270Z,1999.90
2022-08-24T12:16:57.489Z,1999.90
2022-08-24T12:19:30.811Z,1999.90
2022-08-24T12:22:02.726Z,1999.90
2022-08-24T12:24:40.910Z,1999.90
2022-08-24T12:27:29.504Z,1999.90
2022-08-24T12:30:07.606Z,1999.90
2022-08-24T12:32:44.375Z,1999.90
2022-08-24T12:35:22.212Z,1999.90
2022-08-24T12:37:59.947Z,1999.90
2022-08-24T12:40:47.234Z,1999.90
2022-08-24T12:43:35.218Z,1999.90
2022-08-24T12:46:03.758Z,1999.90
2022-08-24T12:48:42.638Z,1999.90
2022-08-24T12:51:37.673Z,1999.90
2022-08-24T12:54:42.441Z,1999.90
2022-08-24T12:57:15.462Z,1999.90
2022-08-24T12:59:51.508Z,1999.90
2022-08-24T13:02:18.725Z,1999.90
2022-08-24T13:04:49.030Z,1999.90
2022-08-24T13:07:18.979Z,1999.90
2022-08-24T13:09:56.721Z,1999.90
2022-08-24T13:12:46.016Z,1999.90
2022-08-24T13:15:33.470Z,1999.90
2022-08-24T13:18:10.530Z,1999.90
2022-08-24T13:20:44.277Z,1999.90
2022-08-24T13:23:13.893Z,1999.90
2022-08-24T13:25:47.275Z,1999.90
2022-08-24T13:28:20.780Z,1999.90
2022-08-24T13:30:59.982Z,1999.90
2022-08-24T13:33:43.221Z,1999.90
2022-08-24T13:36:29.033Z,1999.90
2022-08-24T13:39:00.491Z,1999.90
2022-08-24T13:41:46.566Z,1999.90
2022-08-24T13:44:45.875Z,1999.90
2022-08-24T13:47:22.747Z,1999.90
2022-08-24T13:50:02.126Z,1999.90
2022-08-24T13:52:48.503Z,1999.90
2022-08-24T13:55:45.253Z,1999.90
2022-08-24T13:58:44.175Z,1999.90
2022-08-24T14:01:33.171Z,1999.90
2022-08-24T14:04:09.216Z,1999.90
2022-08-24T14:07:08.419Z,1999.90
2022-08-24T14:09:40.499Z,1999.90
2022-08-24T14:12:31.932Z,1999.90
2022-08-24T14:15:16.124Z,1999.90
2022-08-24T14:18:05.170Z,1999.90
2022-08-24T14:21:03.367Z,1999.90
2022-08-24T14:24:02.254Z,1999.90
2022-08-24T14:26:41.891Z,1999.90
2022-08-24T14:29:17.996Z,1999.90
2022-08-24T14:32:11.698Z,1999.90
2022-08-24T14:35:13.303Z,1999.90
2022-08-24T14:38:05.612Z,1999.90
2022-08-24T14:41:00.601Z,1999.90
2022-08-24T14:43:58.378Z,1999.90
2022-08-24T14:46:59.289Z,1999.90
2022-08-24T14:50:08.005Z,1999.90
2022-08-24T14:53:28.461Z,1999.90
2022-08-24T14:56:02.272Z,1999.90
2022-08-24T14:58:52.552Z,1999.90
2022-08-24T15:01:37.516Z,1999.90
2022-08-24T15:04:37.749Z,1999.90
2022-08-24T15:07:20.619Z,1999.90
2022-08-24T15:09:48.220Z,1999.90
2022-08-24T15:12:39.650Z,1999.90
2022-08-24T15:15:13.443Z,1999.90
2022-08-24T15:18:03.823Z,1999.90
2022-08-24T15:21:15.229Z,1999.90
2022-08-24T15:24:10.113Z,1999.90
2022-08-24T15:26:55.661Z,1999.90
2022-08-24T15:29:31.254Z,1999.90
2022-08-24T15:32:06.184Z,1999.90
2022-08-24T15:34:45.545Z,1999.90
2022-08-24T15:37:15.947Z,1999.90
2022-08-24T15:39:43.639Z,1999.90
2022-08-24T15:42:14.437Z,1999.90
2022-08-24T15:44:45.629Z,1999.90
2022-08-24T15:47:18.862Z,1999.90
2022-08-24T15:49:56.941Z,1999.90
2022-08-24T15:53:00.163Z,1999.90
2022-08-24T15:55:46.536Z,1999.90
2022-08-24T15:58:35.036Z,1999.90
2022-08-24T16:01:30.091Z,1999.90
2022-08-24T16:04:03.501Z,1999.90
2022-08-24T16:06:33.526Z,1999.90
2022-08-24T16:09:22.711Z,1999.90
2022-08-24T16:12:01.686Z,1999.90
2022-08-24T16:14:37.361Z,1999.90
2022-08-24T16:17:34.757Z,1999.90
2022-08-24T16:20:12.290Z,1999.90
2022-08-24T16:22:54.533Z,1999.90
2022-08-24T16:25:41.036Z,1999.90
2022-08-24T16:28:21.595Z,1999.90
2022-08-24T16:31:01.188Z,1999.90
2022-08-24T16:33:59.045Z,1999.90
2022-08-24T16:36:26.933Z,1999.90
2022-08-24T16:38:54.162Z,1999.90
2022-08-24T16:41:24.203Z,1999.90
2022-08-24T16:43:51.730Z,1999.90
2022-08-24T16:46:22.700Z,1999.90
2022-08-24T16:48:50.581Z,1999.90
2022-08-24T16:51:17.758Z,1999.90
2022-08-24T16:53:44.950Z,1999.90
2022-08-24T16:56:16.339Z,1999.90
2022-08-24T16:58:48.990Z,1999.90
2022-08-24T17:01:16.800Z,1999.90
2022-08-24T17:03:44.071Z,1999.90
2022-08-24T17:06:12.409Z,1999.90
2022-08-24T17:08:40.478Z,1999.90
2022-08-24T17:11:15.339Z,1999.90
2022-08-24T17:13:50.703Z,1999.90
2022-08-24T17:16:20.050Z,1999.90
2022-08-24T17:18:47.760Z,1999.90
2022-08-24T17:21:15.048Z,1999.90
2022-08-24T17:23:43.286Z,1999.90
2022-08-24T17:26:20.214Z,1999.90
2022-08-24T17:28:51.782Z,1999.90
2022-08-24T17:31:19.189Z,1999.90
2022-08-24T17:33:46.967Z,1999.90
2022-08-24T17:36:16.064Z,1999.90
2022-08-24T17:38:45.920Z,1999.90
2022-08-24T17:41:14.745Z,1999.90
2022-08-24T17:43:46.001Z,1999.90
2022-08-24T17:46:14.842Z,1999.90
2022-08-24T17:48:47.243Z,1999.90
2022-08-24T17:51:14.809Z,1999.90
2022-08-24T17:53:42.059Z,1999.90
2022-08-24T17:56:09.958Z,1999.90
2022-08-24T17:58:57.125Z,1999.90
2022-08-24T18:01:24.832Z,1999.90
2022-08-24T18:03:52.460Z,1999.90
2022-08-24T18:06:23.195Z,1999.90
2022-08-24T18:08:54.259Z,1999.90
2022-08-24T18:11:25.656Z,1999.90
2022-08-24T18:13:54.264Z,1999.90
2022-08-24T18:16:24.826Z,1999.90
2022-08-24T18:18:53.887Z,1999.90
2022-08-24T18:21:21.941Z,1999.90
2022-08-24T18:23:50.233Z,1999.90
2022-08-24T18:26:27.754Z,1999.90
2022-08-24T18:28:58.234Z,1999.90
2022-08-24T18:31:27.987Z,1999.90
2022-08-24T18:33:55.262Z,1999.90
2022-08-24T18:36:22.437Z,1999.90
2022-08-24T18:38:49.779Z,1999.90
2022-08-24T18:41:17.439Z,1999.90
2022-08-24T18:43:47.875Z,1999.90
2022-08-24T18:46:15.223Z,1999.90
2022-08-24T18:48:42.480Z,1999.90
2022-08-24T18:51:23.976Z,1999.90
2022-08-24T18:54:05.245Z,1999.90
2022-08-24T18:56:32.875Z,1999.90
2022-08-24T18:59:00.099Z,1999.90
2022-08-24T19:01:28.361Z,1999.90
2022-08-24T19:03:56.213Z,1999.90
2022-08-24T19:06:24.241Z,1999.90
2022-08-24T19:08:51.559Z,1999.90
2022-08-24T19:11:22.874Z,1999.90
2022-08-24T19:13:50.191Z,1999.90
2022-08-24T19:16:17.545Z,1999.90
2022-08-24T19:18:44.887Z,1999.90
2022-08-24T19:21:12.136Z,1999.90
2022-08-24T19:23:40.404Z,1999.90
2022-08-24T19:26:07.704Z,1999.90
2022-08-24T19:28:35.019Z,1999.90
2022-08-24T19:31:05.134Z,1999.90
2022-08-24T19:33:36.775Z,1999.90
2022-08-24T19:36:04.644Z,1367.93
2022-08-24T19:38:31.887Z,1999.90
2022-08-24T19:41:02.441Z,1999.90
2022-08-24T19:43:58.436Z,1999.90
2022-08-24T19:46:26.322Z,1999.90
2022-08-24T19:48:53.941Z,1999.90
2022-08-24T19:51:21.147Z,1999.90
2022-08-24T19:53:48.463Z,1999.90
2022-08-24T19:56:15.659Z,1999.90
2022-08-24T19:58:46.837Z,1999.90
2022-08-24T20:01:20.911Z,1999.90
2022-08-24T20:03:48.934Z,1999.90
2022-08-24T20:06:18.055Z,1999.90
2022-08-24T20:08:48.426Z,1999.90
2022-08-24T20:11:16.739Z,1999.90
2022-08-24T20:13:44.071Z,1999.90
2022-08-24T20:16:16.251Z,1999.90
2022-08-24T20:18:44.212Z,1999.90
2022-08-24T20:21:12.138Z,1999.90
2022-08-24T20:23:39.644Z,1999.90
2022-08-24T20:26:07.870Z,1999.90
2022-08-24T20:28:46.068Z,1999.90
2022-08-24T20:31:15.111Z,1999.90
2022-08-24T20:33:45.258Z,1999.90
2022-08-24T20:36:27.845Z,1999.90
2022-08-24T20:38:57.939Z,1999.90
2022-08-24T20:41:26.812Z,1999.90
2022-08-24T20:43:54.944Z,1999.90
2022-08-24T20:46:25.641Z,1999.90
2022-08-24T20:48:55.577Z,1999.90
2022-08-24T20:51:25.568Z,1999.90
2022-08-24T20:53:53.371Z,1999.90
2022-08-24T20:56:31.030Z,1999.90
2022-08-24T20:59:01.764Z,1999.90
2022-08-24T21:01:30.211Z,1999.90
2022-08-24T21:04:01.496Z,1999.90
2022-08-24T21:06:32.679Z,1999.90
2022-08-24T21:09:00.597Z,1999.90
2022-08-24T21:11:27.916Z,1999.90
2022-08-24T21:13:55.279Z,1999.90
2022-08-24T21:16:22.582Z,1999.90
2022-08-24T21:18:50.107Z,1999.90
2022-08-24T21:21:17.534Z,1999.90
2022-08-24T21:23:44.743Z,1999.90
2022-08-24T21:26:14.519Z,1999.90
2022-08-24T21:28:42.782Z,1999.90
2022-08-24T21:31:10.273Z,1999.90
2022-08-24T21:33:56.316Z,1999.90
2022-08-24T21:36:24.995Z,1999.90
2022-08-24T21:38:54.572Z,1999.90
2022-08-24T21:41:22.487Z,1999.90
2022-08-24T21:43:50.682Z,1999.90
2022-08-24T21:46:20.092Z,1999.90
2022-08-24T21:48:47.857Z,1999.90
2022-08-24T21:51:17.538Z,1999.90
2022-08-24T21:53:44.720Z,1999.90
2022-08-24T21:56:12.265Z,1999.90
2022-08-24T21:58:39.420Z,1999.90
2022-08-24T22:01:09.532Z,1999.90
2022-08-24T22:03:40.313Z,1999.90
2022-08-24T22:06:09.647Z,1999.90
2022-08-24T22:08:38.250Z,1999.90
2022-08-24T22:11:06.240Z,1999.90
2022-08-24T22:13:34.498Z,1999.90
2022-08-24T22:16:02.537Z,1999.90
2022-08-24T22:18:30.508Z,1999.90
2022-08-24T22:20:58.086Z,1999.90
2022-08-24T22:23:25.397Z,1999.90
2022-08-24T22:25:55.017Z,1999.90
2022-08-24T22:28:24.085Z,1999.90
2022-08-24T22:30:56.259Z,1999.90
2022-08-24T22:33:23.790Z,1999.90
2022-08-24T22:35:53.305Z,1999.90
2022-08-24T22:38:21.371Z,1999.90
2022-08-24T22:40:55.477Z,1999.90
2022-08-24T22:43:25.110Z,1999.90
2022-08-24T22:45:52.450Z,1999.90
2022-08-24T22:48:19.674Z,1999.90
2022-08-24T22:50:46.958Z,1999.90
2022-08-24T22:53:16.307Z,1999.90
2022-08-24T22:55:43.518Z,1999.90
2022-08-24T22:58:10.666Z,1999.90
2022-08-24T23:00:39.346Z,1999.90
2022-08-24T23:03:06.743Z,1999.90
2022-08-24T23:05:33.906Z,1999.90
2022-08-24T23:08:01.771Z,1999.90
2022-08-24T23:10:28.960Z,1999.90
2022-08-24T23:12:56.156Z,1999.90
2022-08-24T23:15:23.318Z,1999.90
2022-08-24T23:17:50.558Z,1999.90
2022-08-24T23:20:17.934Z,1999.90
2022-08-24T23:22:48.114Z,1999.90
2022-08-24T23:25:15.693Z,1999.90
2022-08-24T23:27:44.476Z,1999.90
2022-08-24T23:30:14.148Z,1999.90
2022-08-24T23:32:41.873Z,1999.90
2022-08-24T23:35:09.614Z,1999.90
2022-08-24T23:37:36.817Z,1999.90
2022-08-24T23:40:04.961Z,1999.90
2022-08-24T23:42:32.211Z,1999.90
2022-08-24T23:44:59.384Z,1999.90
2022-08-24T23:47:27.080Z,1999.90
2022-08-24T23:49:55.412Z,1999.90
2022-08-24T23:52:28.651Z,1999.90
2022-08-24T23:55:11.585Z,1999.90
2022-08-24T23:57:46.086Z,1999.90
